createdAt,value
2023-02-05T00:01:17.488Z,40.85
2023-02-05T00:03:26.347Z,40.38
2023-02-05T00:05:33.447Z,40.08
2023-02-05T00:07:41.018Z,40.80
2023-02-05T00:09:47.855Z,36.60
2023-02-05T00:11:54.661Z,36.92
2023-02-05T00:14:01.910Z,36.10
2023-02-05T00:16:12.267Z,33.20
2023-02-05T00:18:19.439Z,35.40
2023-02-05T00:20:28.211Z,36.53
2023-02-05T00:22:38.576Z,33.80
2023-02-05T00:24:45.535Z,39.60
2023-02-05T00:26:52.780Z,34.50
2023-02-05T00:28:59.707Z,35.03
2023-02-05T00:31:12.804Z,35.10
2023-02-05T00:33:19.803Z,39.00
2023-02-05T00:35:28.521Z,40.25
2023-02-05T00:37:35.302Z,37.22
2023-02-05T00:39:42.491Z,38.00
2023-02-05T00:41:49.313Z,34.38
2023-02-05T00:43:56.370Z,37.80
2023-02-05T00:46:03.261Z,34.88
2023-02-05T00:48:11.458Z,34.67
2023-02-05T00:50:18.436Z,39.08
2023-02-05T00:52:27.073Z,34.05
2023-02-05T00:54:34.522Z,36.05
2023-02-05T00:56:41.364Z,34.47
2023-02-05T00:58:51.057Z,33.08
2023-02-05T01:01:00.132Z,33.88
2023-02-05T01:03:07.518Z,32.10
2023-02-05T01:05:14.802Z,31.63
2023-02-05T01:07:22.452Z,33.22
2023-02-05T01:09:31.189Z,38.60
2023-02-05T01:11:38.458Z,38.20
2023-02-05T01:13:45.478Z,37.08
2023-02-05T01:15:52.651Z,37.13
2023-02-05T01:18:01.003Z,38.88
2023-02-05T01:20:08.968Z,37.00
2023-02-05T01:22:16.969Z,33.15
2023-02-05T01:24:24.150Z,29.55
2023-02-05T01:26:32.853Z,32.85
2023-02-05T01:28:40.671Z,28.75
2023-02-05T01:30:51.872Z,25.83
2023-02-05T01:32:59.174Z,26.90
2023-02-05T01:35:06.112Z,25.95
2023-02-05T01:37:13.641Z,27.38
2023-02-05T01:39:21.674Z,26.23
2023-02-05T01:41:31.994Z,26.15
2023-02-05T01:43:39.109Z,25.77
2023-02-05T01:46:03.616Z,25.45
2023-02-05T01:48:13.097Z,24.65
2023-02-05T01:50:22.162Z,22.58
2023-02-05T01:52:30.479Z,22.70
2023-02-05T01:54:40.168Z,23.20
2023-02-05T01:56:52.917Z,22.13
2023-02-05T01:59:03.979Z,23.50
2023-02-05T02:01:11.492Z,25.92
2023-02-05T02:03:18.984Z,22.45
2023-02-05T02:05:26.197Z,23.17
2023-02-05T02:07:33.088Z,21.13
2023-02-05T02:09:41.753Z,20.67
2023-02-05T02:11:50.627Z,21.75
2023-02-05T02:13:59.857Z,17.02
2023-02-05T02:16:08.194Z,18.38
2023-02-05T02:18:31.217Z,18.15
2023-02-05T02:20:44.338Z,22.38
2023-02-05T02:23:09.190Z,18.08
2023-02-05T02:25:36.164Z,18.38
2023-02-05T02:27:53.563Z,21.42
2023-02-05T02:30:04.943Z,21.75
2023-02-05T02:32:19.011Z,17.60
2023-02-05T02:34:34.044Z,21.73
2023-02-05T02:36:47.111Z,20.65
2023-02-05T02:38:57.518Z,18.58
2023-02-05T02:41:10.025Z,18.08
2023-02-05T02:43:22.324Z,14.85
2023-02-05T02:45:33.039Z,21.38
2023-02-05T02:47:43.096Z,19.23
2023-02-05T02:49:55.292Z,23.65
2023-02-05T02:52:05.591Z,26.42
2023-02-05T02:54:17.288Z,27.83
2023-02-05T02:56:26.412Z,29.23
2023-02-05T02:58:39.394Z,30.50
2023-02-05T03:00:48.481Z,33.10
2023-02-05T03:03:00.919Z,29.50
2023-02-05T03:07:37.280Z,24.27
2023-02-05T03:09:49.090Z,25.10
2023-02-05T03:11:57.961Z,22.13
2023-02-05T03:14:07.087Z,25.08
2023-02-05T03:16:21.700Z,24.40
2023-02-05T03:18:28.869Z,27.70
2023-02-05T03:20:40.180Z,24.63
2023-02-05T03:22:47.226Z,23.60
2023-02-05T03:24:54.970Z,29.73
2023-02-05T03:27:01.901Z,34.90
2023-02-05T03:29:14.773Z,38.85
2023-02-05T03:31:32.129Z,41.33
2023-02-05T03:33:50.268Z,36.17
2023-02-05T03:36:08.357Z,29.65
2023-02-05T03:38:32.129Z,28.20
2023-02-05T03:40:49.599Z,24.20
2023-02-05T03:43:06.408Z,22.55
2023-02-05T03:45:40.684Z,23.50
2023-02-05T03:48:09.871Z,18.42
2023-02-05T03:50:27.190Z,15.38
2023-02-05T03:52:37.752Z,23.35
2023-02-05T03:54:54.388Z,22.73
2023-02-05T03:57:12.134Z,22.13
2023-02-05T03:59:22.741Z,24.80
2023-02-05T04:01:32.641Z,26.90
2023-02-05T04:03:40.085Z,28.75
2023-02-05T04:05:47.817Z,31.55
2023-02-05T04:07:55.341Z,28.10
2023-02-05T04:12:14.944Z,23.33
2023-02-05T04:14:23.199Z,30.73
2023-02-05T04:16:33.106Z,22.38
2023-02-05T04:18:40.953Z,28.95
2023-02-05T04:20:48.071Z,23.67
2023-02-05T04:22:58.938Z,25.63
2023-02-05T04:25:07.537Z,22.38
2023-02-05T04:27:15.247Z,23.27
2023-02-05T04:29:22.111Z,23.70
2023-02-05T04:31:33.454Z,25.38
2023-02-05T04:33:41.306Z,23.17
2023-02-05T04:35:49.919Z,27.55
2023-02-05T04:37:57.319Z,24.35
2023-02-05T04:40:04.753Z,23.85
2023-02-05T04:42:11.618Z,26.90
2023-02-05T04:44:18.800Z,28.77
2023-02-05T04:46:25.673Z,29.25
2023-02-05T04:48:35.109Z,27.42
2023-02-05T04:50:42.649Z,28.55
2023-02-05T04:52:49.829Z,31.17
2023-02-05T04:54:57.150Z,28.33
2023-02-05T04:57:03.992Z,39.13
2023-02-05T04:59:10.864Z,27.58
2023-02-05T05:01:20.576Z,26.30
2023-02-05T05:03:27.489Z,22.17
2023-02-05T05:05:37.895Z,25.88
2023-02-05T05:07:44.801Z,23.23
2023-02-05T05:09:52.551Z,30.00
2023-02-05T05:11:59.586Z,26.60
2023-02-05T05:14:06.715Z,30.52
2023-02-05T05:16:15.119Z,25.80
2023-02-05T05:18:24.562Z,20.52
2023-02-05T05:20:31.691Z,22.42
2023-02-05T05:22:40.397Z,22.05
2023-02-05T05:24:47.126Z,24.08
2023-02-05T05:26:54.396Z,20.02
2023-02-05T05:29:01.276Z,20.42
2023-02-05T05:31:13.235Z,22.67
2023-02-05T05:33:20.421Z,22.25
2023-02-05T05:35:27.541Z,18.20
2023-02-05T05:37:34.259Z,21.13
2023-02-05T05:39:59.613Z,18.13
2023-02-05T05:42:22.874Z,34.33
2023-02-05T05:44:30.013Z,28.88
2023-02-05T05:46:36.940Z,34.13
2023-02-05T05:48:44.582Z,24.98
2023-02-05T05:50:51.508Z,15.18
2023-02-05T05:52:58.677Z,18.08
2023-02-05T05:55:07.405Z,16.95
2023-02-05T05:57:14.586Z,15.50
2023-02-05T05:59:21.403Z,13.90
2023-02-05T06:01:28.720Z,15.00
2023-02-05T06:03:36.285Z,19.17
2023-02-05T06:05:43.823Z,19.40
2023-02-05T06:07:50.747Z,16.73
2023-02-05T06:09:57.875Z,18.67
2023-02-05T06:12:06.551Z,18.65
2023-02-05T06:14:13.621Z,20.83
2023-02-05T06:16:20.462Z,20.23
2023-02-05T06:18:27.573Z,22.15
2023-02-05T06:20:34.453Z,16.52
2023-02-05T06:22:41.834Z,15.75
2023-02-05T06:24:48.761Z,18.42
2023-02-05T06:26:55.892Z,18.92
2023-02-05T06:29:04.712Z,16.65
2023-02-05T06:31:12.044Z,17.90
2023-02-05T06:33:18.975Z,20.02
2023-02-05T06:35:26.771Z,17.85
2023-02-05T06:37:46.596Z,18.33
2023-02-05T06:39:54.599Z,18.77
2023-02-05T06:42:01.424Z,21.00
2023-02-05T06:44:10.353Z,20.55
2023-02-05T06:46:17.151Z,20.13
2023-02-05T06:48:24.379Z,16.08
2023-02-05T06:50:31.428Z,20.63
2023-02-05T06:52:38.561Z,20.15
2023-02-05T06:54:46.157Z,17.98
2023-02-05T06:56:53.127Z,20.30
2023-02-05T06:58:59.875Z,19.95
2023-02-05T07:01:08.670Z,18.10
2023-02-05T07:03:15.578Z,17.58
2023-02-05T07:05:22.987Z,19.40
2023-02-05T07:07:29.909Z,19.30
2023-02-05T07:09:37.160Z,18.65
2023-02-05T07:11:44.023Z,18.02
2023-02-05T07:13:51.185Z,19.25
2023-02-05T07:15:58.599Z,18.60
2023-02-05T07:18:07.880Z,16.90
2023-02-05T07:20:15.152Z,17.08
2023-02-05T07:22:22.646Z,17.90
2023-02-05T07:24:29.821Z,19.77
2023-02-05T07:26:36.953Z,23.98
2023-02-05T07:28:44.142Z,21.90
2023-02-05T07:30:54.016Z,19.88
2023-02-05T07:33:01.917Z,25.02
2023-02-05T07:35:11.300Z,22.67
2023-02-05T07:37:19.081Z,21.98
2023-02-05T07:39:29.687Z,20.98
2023-02-05T07:41:36.728Z,17.30
2023-02-05T07:43:45.718Z,17.27
2023-02-05T07:46:01.791Z,14.90
2023-02-05T07:48:09.243Z,17.02
2023-02-05T07:50:17.607Z,12.48
2023-02-05T07:52:24.885Z,13.80
2023-02-05T07:54:31.710Z,12.27
2023-02-05T07:56:39.096Z,13.93
2023-02-05T07:58:46.227Z,12.93
2023-02-05T08:00:53.510Z,12.18
2023-02-05T08:03:00.319Z,11.90
2023-02-05T08:05:07.924Z,13.00
2023-02-05T08:07:17.603Z,13.02
2023-02-05T08:09:24.744Z,11.23
2023-02-05T08:11:32.680Z,12.55
2023-02-05T08:13:39.980Z,13.98
2023-02-05T08:15:46.905Z,12.57
2023-02-05T08:17:54.086Z,12.40
2023-02-05T08:20:04.133Z,12.77
2023-02-05T08:22:11.268Z,15.52
2023-02-05T08:24:19.983Z,12.60
2023-02-05T08:26:28.151Z,14.32
2023-02-05T08:28:35.217Z,14.00
2023-02-05T08:30:43.001Z,13.30
2023-02-05T08:32:51.920Z,13.30
2023-02-05T08:34:59.884Z,13.88
2023-02-05T08:37:06.744Z,13.15
2023-02-05T08:39:13.839Z,13.05
2023-02-05T08:41:22.460Z,12.70
2023-02-05T08:43:29.741Z,10.65
2023-02-05T08:45:37.014Z,12.88
2023-02-05T08:47:44.396Z,10.70
2023-02-05T08:49:51.268Z,12.23
2023-02-05T08:51:59.232Z,12.82
2023-02-05T08:54:06.878Z,12.57
2023-02-05T08:56:15.166Z,13.35
2023-02-05T08:58:23.699Z,11.68
2023-02-05T09:00:31.089Z,16.13
2023-02-05T09:02:38.008Z,13.95
2023-02-05T09:04:45.966Z,13.13
2023-02-05T09:06:53.811Z,12.65
2023-02-05T09:09:01.246Z,13.50
2023-02-05T09:11:10.319Z,13.98
2023-02-05T09:13:17.298Z,12.20
2023-02-05T09:15:26.012Z,12.88
2023-02-05T09:17:33.212Z,14.88
2023-02-05T09:19:40.841Z,14.95
2023-02-05T09:21:48.840Z,12.80
2023-02-05T09:23:56.585Z,11.13
2023-02-05T09:26:03.921Z,12.93
2023-02-05T09:28:11.482Z,14.40
2023-02-05T09:30:19.205Z,12.38
2023-02-05T09:32:28.040Z,11.50
2023-02-05T09:34:36.131Z,14.13
2023-02-05T09:36:45.974Z,13.75
2023-02-05T09:39:11.945Z,12.88
2023-02-05T09:41:29.830Z,15.70
2023-02-05T09:43:53.499Z,14.77
2023-02-05T09:46:06.385Z,15.35
2023-02-05T09:48:55.636Z,18.88
2023-02-05T09:51:03.284Z,14.18
2023-02-05T09:53:16.144Z,17.35
2023-02-05T09:55:27.006Z,16.00
2023-02-05T09:57:38.950Z,19.88
2023-02-05T09:59:48.125Z,17.10
2023-02-05T10:01:58.122Z,16.52
2023-02-05T10:04:09.003Z,16.05
2023-02-05T10:06:28.595Z,17.58
2023-02-05T10:08:44.297Z,14.82
2023-02-05T10:10:53.266Z,14.88
2023-02-05T10:13:29.839Z,13.48
2023-02-05T10:16:00.691Z,13.45
2023-02-05T10:18:19.834Z,17.73
2023-02-05T10:20:45.916Z,15.40
2023-02-05T10:23:10.510Z,16.45
2023-02-05T10:25:45.624Z,16.92
2023-02-05T10:28:00.372Z,20.50
2023-02-05T10:30:13.673Z,20.60
2023-02-05T10:32:25.566Z,20.83
2023-02-05T10:34:48.057Z,16.85
2023-02-05T10:36:57.543Z,18.80
2023-02-05T10:39:04.777Z,21.63
2023-02-05T10:41:20.288Z,16.33
2023-02-05T10:43:30.760Z,18.48
2023-02-05T10:45:38.300Z,19.40
2023-02-05T10:48:00.213Z,19.88
2023-02-05T10:50:17.906Z,26.75
2023-02-05T10:52:26.827Z,25.73
2023-02-05T10:54:36.007Z,26.25
2023-02-05T10:56:44.404Z,28.23
2023-02-05T10:58:56.921Z,30.35
2023-02-05T11:01:06.613Z,30.08
2023-02-05T11:03:22.717Z,34.13
2023-02-05T11:05:37.856Z,31.00
2023-02-05T11:07:49.719Z,31.60
2023-02-05T11:09:56.536Z,31.80
2023-02-05T11:12:05.664Z,37.22
2023-02-05T11:14:23.904Z,34.25
2023-02-05T11:16:42.417Z,35.05
2023-02-05T11:18:58.493Z,36.97
2023-02-05T11:21:09.614Z,39.10
2023-02-05T11:23:23.255Z,34.53
2023-02-05T11:25:31.499Z,37.55
2023-02-05T11:27:39.509Z,38.97
2023-02-05T11:29:46.892Z,41.83
2023-02-05T11:31:54.044Z,36.35
2023-02-05T11:34:18.033Z,39.38
2023-02-05T11:36:27.896Z,39.60
2023-02-05T11:38:45.346Z,38.47
2023-02-05T11:40:56.184Z,40.22
2023-02-05T11:43:09.595Z,39.85
2023-02-05T11:45:23.666Z,40.25
2023-02-05T11:47:33.788Z,33.47
2023-02-05T11:49:44.060Z,31.00
2023-02-05T11:51:54.001Z,35.67
2023-02-05T11:54:05.748Z,34.67
2023-02-05T11:56:16.601Z,34.17
2023-02-05T11:58:36.126Z,32.85
2023-02-05T12:00:55.144Z,35.58
2023-02-05T12:03:16.946Z,36.42
2023-02-05T12:07:38.554Z,40.40
2023-02-05T12:09:49.220Z,39.10
2023-02-05T12:12:12.327Z,50.25
2023-02-05T12:14:25.338Z,41.78
2023-02-05T12:16:51.692Z,41.72
2023-02-05T12:19:05.731Z,45.03
2023-02-05T12:21:25.284Z,47.28
2023-02-05T12:23:44.296Z,42.83
2023-02-05T12:26:06.835Z,43.17
2023-02-05T12:28:30.288Z,42.95
2023-02-05T12:30:49.629Z,38.15
2023-02-05T12:33:02.733Z,44.80
2023-02-05T12:35:30.295Z,38.65
2023-02-05T12:37:44.538Z,45.75
2023-02-05T12:39:57.250Z,47.67
2023-02-05T12:42:18.361Z,49.47
2023-02-05T12:44:40.524Z,50.17
2023-02-05T12:46:57.296Z,46.13
2023-02-05T12:49:20.298Z,48.05
2023-02-05T12:51:39.926Z,48.10
2023-02-05T12:54:04.210Z,48.58
2023-02-05T12:56:38.828Z,48.40
2023-02-05T12:58:52.665Z,45.97
2023-02-05T13:01:03.410Z,52.85
2023-02-05T13:03:26.078Z,44.97
2023-02-05T13:05:37.205Z,43.38
2023-02-05T13:07:46.588Z,45.63
2023-02-05T13:09:59.665Z,43.92
2023-02-05T13:12:13.688Z,45.25
2023-02-05T13:14:27.115Z,48.10
2023-02-05T13:16:42.182Z,49.90
2023-02-05T13:18:55.315Z,50.33
2023-02-05T13:21:23.064Z,50.50
2023-02-05T13:23:46.839Z,49.15
2023-02-05T13:26:07.341Z,44.13
2023-02-05T13:28:45.660Z,46.33
2023-02-05T13:30:59.257Z,47.67
2023-02-05T13:33:09.286Z,39.88
2023-02-05T13:35:17.598Z,40.60
2023-02-05T13:37:47.723Z,47.08
2023-02-05T13:40:29.198Z,51.58
2023-02-05T13:43:17.134Z,63.37
2023-02-05T13:46:04.932Z,54.58
2023-02-05T13:48:33.193Z,60.15
2023-02-05T13:51:17.700Z,50.28
2023-02-05T13:53:50.380Z,70.90
2023-02-05T13:56:25.006Z,67.22
2023-02-05T13:58:34.579Z,66.93
2023-02-05T14:00:43.569Z,74.75
2023-02-05T14:02:52.282Z,57.58
2023-02-05T14:05:01.828Z,59.35
2023-02-05T14:07:11.868Z,58.55
2023-02-05T14:09:26.729Z,63.40
2023-02-05T14:11:58.344Z,58.95
2023-02-05T14:14:31.631Z,51.10
2023-02-05T14:16:39.766Z,53.83
2023-02-05T14:19:06.066Z,73.65
2023-02-05T14:21:48.016Z,62.92
2023-02-05T14:24:01.653Z,55.22
2023-02-05T14:26:12.929Z,56.63
2023-02-05T14:28:55.166Z,58.58
2023-02-05T14:31:04.480Z,65.40
2023-02-05T14:33:32.941Z,59.45
2023-02-05T14:35:41.146Z,56.58
2023-02-05T14:37:50.889Z,57.42
2023-02-05T14:40:00.641Z,59.22
2023-02-05T14:42:10.422Z,58.88
2023-02-05T14:44:23.496Z,56.53
2023-02-05T14:46:34.654Z,54.88
2023-02-05T14:48:46.406Z,59.58
2023-02-05T14:51:06.639Z,57.75
2023-02-05T14:53:27.695Z,59.60
2023-02-05T14:55:43.883Z,66.10
2023-02-05T14:57:54.127Z,61.58
2023-02-05T15:00:03.425Z,62.85
2023-02-05T15:03:03.960Z,61.42
2023-02-05T15:05:20.915Z,58.40
2023-02-05T15:07:30.762Z,60.28
2023-02-05T15:09:45.163Z,59.15
2023-02-05T15:12:11.594Z,59.50
2023-02-05T15:14:42.734Z,60.67
2023-02-05T15:16:49.818Z,64.32
2023-02-05T15:18:58.751Z,66.43
2023-02-05T15:21:06.880Z,63.65
2023-02-05T15:23:37.786Z,63.53
2023-02-05T15:25:49.539Z,65.28
2023-02-05T15:28:02.740Z,69.50
2023-02-05T15:30:12.438Z,63.75
2023-02-05T15:32:25.848Z,66.20
2023-02-05T15:34:37.894Z,65.80
2023-02-05T15:36:52.828Z,68.38
2023-02-05T15:39:25.258Z,63.28
2023-02-05T15:43:43.129Z,55.67
2023-02-05T15:45:50.479Z,56.25
2023-02-05T15:48:05.455Z,52.90
2023-02-05T15:50:16.468Z,50.95
2023-02-05T15:52:27.133Z,55.33
2023-02-05T15:54:37.797Z,50.38
2023-02-05T15:56:45.945Z,50.80
2023-02-05T15:58:57.018Z,47.92
2023-02-05T16:01:04.201Z,51.97
2023-02-05T16:03:27.169Z,51.30
2023-02-05T16:05:36.269Z,65.15
2023-02-05T16:07:46.172Z,51.92
2023-02-05T16:09:55.299Z,52.47
2023-02-05T16:12:14.973Z,55.15
2023-02-05T16:14:25.075Z,51.80
2023-02-05T16:16:32.555Z,49.80
2023-02-05T16:18:43.826Z,48.92
2023-02-05T16:20:55.068Z,50.27
2023-02-05T16:23:05.121Z,56.60
2023-02-05T16:25:26.994Z,52.20
2023-02-05T16:29:51.490Z,47.90
2023-02-05T16:32:06.095Z,48.38
2023-02-05T16:34:19.167Z,49.40
2023-02-05T16:36:27.676Z,54.67
2023-02-05T16:38:35.016Z,55.95
2023-02-05T16:40:47.209Z,54.50
2023-02-05T16:42:54.034Z,59.80
2023-02-05T16:45:22.777Z,59.72
2023-02-05T16:47:30.208Z,59.72
2023-02-05T16:49:37.490Z,50.70
2023-02-05T16:51:58.854Z,53.95
2023-02-05T16:54:25.032Z,46.13
2023-02-05T16:56:35.546Z,50.17
2023-02-05T16:58:48.645Z,54.90
2023-02-05T17:01:02.682Z,48.47
2023-02-05T17:03:21.789Z,49.65
2023-02-05T17:05:31.033Z,56.22
2023-02-05T17:07:38.334Z,51.95
2023-02-05T17:09:45.472Z,47.85
2023-02-05T17:11:52.751Z,52.65
2023-02-05T17:14:15.429Z,48.67
2023-02-05T17:16:34.233Z,51.00
2023-02-05T17:18:43.328Z,52.08
2023-02-05T17:20:50.506Z,49.20
2023-02-05T17:23:14.334Z,49.65
2023-02-05T17:25:23.817Z,45.20
2023-02-05T17:27:33.610Z,43.42
2023-02-05T17:29:41.865Z,44.78
2023-02-05T17:31:50.721Z,44.85
2023-02-05T17:33:59.405Z,42.90
2023-02-05T17:36:06.823Z,39.60
2023-02-05T17:38:14.700Z,49.08
2023-02-05T17:40:23.050Z,48.00
2023-02-05T17:42:32.283Z,48.08
2023-02-05T17:44:39.821Z,50.30
2023-02-05T17:46:49.202Z,46.97
2023-02-05T17:48:56.335Z,43.10
2023-02-05T17:51:04.008Z,48.33
2023-02-05T17:53:15.046Z,46.13
2023-02-05T17:55:23.359Z,47.42
2023-02-05T17:57:34.737Z,48.22
2023-02-05T17:59:41.916Z,49.87
2023-02-05T18:01:51.612Z,54.65
2023-02-05T18:03:58.481Z,47.85
2023-02-05T18:06:05.511Z,45.78
2023-02-05T18:08:14.739Z,40.97
2023-02-05T18:10:24.582Z,39.28
2023-02-05T18:12:31.496Z,40.88
2023-02-05T18:14:38.639Z,47.28
2023-02-05T18:16:45.557Z,44.83
2023-02-05T18:18:54.336Z,49.65
2023-02-05T18:21:01.483Z,48.10
2023-02-05T18:23:08.894Z,45.10
2023-02-05T18:25:18.007Z,36.42
2023-02-05T18:27:24.904Z,40.20
2023-02-05T18:29:31.984Z,40.25
2023-02-05T18:31:39.134Z,43.05
2023-02-05T18:33:46.037Z,43.42
2023-02-05T18:35:54.960Z,41.47
2023-02-05T18:38:01.971Z,44.47
2023-02-05T18:40:09.988Z,42.28
2023-02-05T18:42:17.119Z,50.92
2023-02-05T18:44:24.510Z,48.00
2023-02-05T18:46:31.837Z,49.15
2023-02-05T18:48:38.972Z,49.72
2023-02-05T18:50:45.845Z,47.90
2023-02-05T18:52:54.818Z,48.70
2023-02-05T18:55:01.953Z,39.65
2023-02-05T18:57:09.184Z,39.55
2023-02-05T18:59:19.397Z,41.47
2023-02-05T19:01:26.712Z,41.50
2023-02-05T19:03:33.580Z,43.20
2023-02-05T19:05:40.671Z,43.03
2023-02-05T19:07:48.773Z,71.43
2023-02-05T19:09:58.671Z,46.90
2023-02-05T19:12:05.644Z,42.30
2023-02-05T19:14:16.153Z,40.13
2023-02-05T19:16:23.077Z,44.15
2023-02-05T19:18:30.208Z,42.33
2023-02-05T19:20:38.362Z,41.50
2023-02-05T19:22:45.597Z,44.05
2023-02-05T19:24:52.471Z,40.25
2023-02-05T19:27:01.647Z,35.42
2023-02-05T19:29:10.196Z,37.28
2023-02-05T19:31:18.541Z,40.90
2023-02-05T19:33:25.398Z,42.40
2023-02-05T19:35:33.087Z,42.03
2023-02-05T19:37:40.118Z,45.35
2023-02-05T19:39:47.415Z,42.47
2023-02-05T19:41:54.382Z,45.95
2023-02-05T19:44:05.453Z,41.80
2023-02-05T19:46:12.756Z,39.67
2023-02-05T19:48:20.045Z,43.05
2023-02-05T19:50:27.922Z,43.60
2023-02-05T19:52:35.205Z,46.95
2023-02-05T19:54:42.388Z,44.97
2023-02-05T19:56:49.777Z,40.35
2023-02-05T19:58:58.393Z,39.03
2023-02-05T20:01:14.764Z,39.45
2023-02-05T20:03:21.664Z,50.58
2023-02-05T20:05:29.087Z,50.22
2023-02-05T20:07:39.253Z,48.65
2023-02-05T20:09:46.790Z,52.78
2023-02-05T20:11:55.491Z,45.40
2023-02-05T20:14:04.735Z,56.83
2023-02-05T20:16:17.120Z,42.08
2023-02-05T20:18:24.785Z,47.40
2023-02-05T20:20:33.873Z,47.58
2023-02-05T20:22:41.190Z,49.22
2023-02-05T20:24:48.014Z,47.42
2023-02-05T20:26:55.356Z,42.53
2023-02-05T20:29:18.558Z,50.75
2023-02-05T20:31:42.275Z,34.45
2023-02-05T20:33:51.095Z,38.10
2023-02-05T20:35:58.277Z,45.25
2023-02-05T20:38:05.152Z,41.13
2023-02-05T20:40:13.662Z,51.30
2023-02-05T20:42:20.543Z,47.88
2023-02-05T20:44:28.183Z,51.95
2023-02-05T20:46:37.906Z,46.45
2023-02-05T20:48:45.156Z,42.58
2023-02-05T20:50:51.980Z,44.38
2023-02-05T20:52:59.164Z,44.85
2023-02-05T20:55:06.037Z,47.40
2023-02-05T20:57:13.371Z,49.50
2023-02-05T20:59:20.452Z,53.35
2023-02-05T21:01:29.167Z,53.72
2023-02-05T21:03:38.653Z,52.25
2023-02-05T21:05:45.835Z,50.30
2023-02-05T21:07:53.478Z,43.92
2023-02-05T21:10:02.494Z,39.75
2023-02-05T21:12:10.297Z,41.83
2023-02-05T21:14:17.171Z,41.65
2023-02-05T21:16:27.715Z,46.05
2023-02-05T21:18:37.373Z,46.58
2023-02-05T21:20:44.196Z,52.10
2023-02-05T21:22:51.428Z,42.53
2023-02-05T21:24:58.392Z,46.03
2023-02-05T21:27:05.772Z,49.80
2023-02-05T21:29:14.779Z,61.67
2023-02-05T21:31:22.065Z,52.25
2023-02-05T21:33:29.229Z,53.60
2023-02-05T21:35:41.532Z,55.55
2023-02-05T21:37:48.662Z,55.83
2023-02-05T21:40:08.404Z,49.35
2023-02-05T21:42:16.286Z,43.28
2023-02-05T21:44:23.574Z,40.42
2023-02-05T21:46:32.497Z,50.55
2023-02-05T21:48:39.955Z,51.55
2023-02-05T21:50:48.606Z,49.92
2023-02-05T21:52:58.120Z,49.47
2023-02-05T21:55:04.910Z,46.72
2023-02-05T21:57:12.504Z,48.45
2023-02-05T21:59:21.063Z,48.58
2023-02-05T22:01:29.384Z,54.83
2023-02-05T22:03:36.196Z,63.03
2023-02-05T22:05:43.325Z,48.20
2023-02-05T22:07:51.946Z,50.67
2023-02-05T22:09:59.083Z,48.10
2023-02-05T22:12:07.279Z,47.67
2023-02-05T22:14:15.084Z,50.20
2023-02-05T22:16:24.223Z,48.25
2023-02-05T22:18:31.487Z,50.10
2023-02-05T22:20:38.397Z,46.08
2023-02-05T22:22:45.543Z,52.35
2023-02-05T22:24:54.159Z,54.78
2023-02-05T22:27:01.398Z,54.42
2023-02-05T22:29:09.651Z,54.83
2023-02-05T22:31:19.266Z,54.45
2023-02-05T22:33:26.160Z,52.30
2023-02-05T22:35:33.805Z,46.65
2023-02-05T22:37:41.035Z,54.72
2023-02-05T22:39:48.213Z,53.33
2023-02-05T22:41:56.781Z,51.13
2023-02-05T22:44:05.191Z,62.35
2023-02-05T22:46:13.196Z,61.33
2023-02-05T22:48:20.272Z,55.10
2023-02-05T22:50:27.181Z,50.85
2023-02-05T22:52:34.225Z,52.38
2023-02-05T22:54:41.102Z,51.60
2023-02-05T22:56:48.589Z,55.55
2023-02-05T22:58:57.920Z,55.78
2023-02-05T23:01:12.200Z,51.28
2023-02-05T23:03:19.238Z,46.58
2023-02-05T23:05:26.630Z,51.25
2023-02-05T23:07:35.091Z,52.97
2023-02-05T23:09:42.580Z,51.17
2023-02-05T23:11:49.711Z,57.03
2023-02-05T23:14:00.125Z,60.22
2023-02-05T23:16:12.039Z,53.63
2023-02-05T23:20:25.300Z,51.75
2023-02-05T23:22:32.174Z,56.08
2023-02-05T23:24:40.124Z,53.88
2023-02-05T23:26:48.949Z,56.03
2023-02-05T23:28:58.784Z,54.47
2023-02-05T23:31:05.960Z,69.20
2023-02-05T23:33:13.149Z,63.30
2023-02-05T23:35:20.227Z,61.92
2023-02-05T23:37:27.562Z,58.13
2023-02-05T23:39:34.470Z,56.17
2023-02-05T23:41:41.722Z,63.50
2023-02-05T23:43:48.556Z,65.72
2023-02-05T23:45:57.972Z,64.75
2023-02-05T23:48:04.850Z,57.13
2023-02-05T23:50:12.359Z,58.90
2023-02-05T23:52:19.172Z,54.03
2023-02-05T23:54:27.017Z,65.03
2023-02-05T23:56:33.992Z,63.25
2023-02-05T23:58:41.277Z,62.53
